sensor_id;sensor_type;location;lat;lon;timestamp;pressure;altitude;pressure_sealevel;temperature;humidity
10348;BME280;5220;43.192;23.284;2023-08-06T00:01:42;95807.50;;;24.31;100.00
10348;BME280;5220;43.192;23.284;2023-08-06T00:04:09;95828.53;;;24.33;100.00
10348;BME280;5220;43.192;23.284;2023-08-06T00:06:35;95821.09;;;24.23;100.00
10348;BME280;5220;43.192;23.284;2023-08-06T00:09:02;95824.69;;;24.29;100.00
10348;BME280;5220;43.192;23.284;2023-08-06T00:11:30;95843.09;;;24.30;100.00
10348;BME280;5220;43.192;23.284;2023-08-06T00:13:57;95827.13;;;24.30;100.00
10348;BME280;5220;43.192;23.284;2023-08-06T00:16:23;95831.28;;;24.26;100.00
10348;BME280;5220;43.192;23.284;2023-08-06T00:18:50;95844.56;;;24.26;100.00
10348;BME280;5220;43.192;23.284;2023-08-06T00:21:17;95855.06;;;24.21;100.00
10348;BME280;5220;43.192;23.284;2023-08-06T00:23:43;95840.97;;;24.21;100.00
10348;BME280;5220;43.192;23.284;2023-08-06T00:26:10;95839.69;;;24.23;100.00
10348;BME280;5220;43.192;23.284;2023-08-06T00:28:38;95836.53;;;24.15;100.00
10348;BME280;5220;43.192;23.284;2023-08-06T00:31:05;95836.47;;;24.21;100.00
10348;BME280;5220;43.192;23.284;2023-08-06T00:33:31;95834.38;;;24.23;100.00
10348;BME280;5220;43.192;23.284;2023-08-06T00:35:58;95839.78;;;24.17;100.00
10348;BME280;5220;43.192;23.284;2023-08-06T00:38:25;95814.84;;;24.18;100.00
10348;BME280;5220;43.192;23.284;2023-08-06T00:40:51;95804.50;;;24.09;100.00
10348;BME280;5220;43.192;23.284;2023-08-06T00:43:18;95814.63;;;24.19;100.00
10348;BME280;5220;43.192;23.284;2023-08-06T00:45:46;95813.50;;;24.08;100.00
10348;BME280;5220;43.192;23.284;2023-08-06T00:48:13;95813.00;;;24.18;100.00
10348;BME280;5220;43.192;23.284;2023-08-06T00:50:40;95800.28;;;24.20;100.00
10348;BME280;5220;43.192;23.284;2023-08-06T00:53:07;95789.44;;;24.03;100.00
10348;BME280;5220;43.192;23.284;2023-08-06T00:55:34;95777.13;;;23.73;100.00
10348;BME280;5220;43.192;23.284;2023-08-06T00:58:02;95783.56;;;23.47;100.00
10348;BME280;5220;43.192;23.284;2023-08-06T01:00:29;95775.28;;;23.55;100.00
10348;BME280;5220;43.192;23.284;2023-08-06T01:02:57;95763.94;;;23.48;100.00
10348;BME280;5220;43.192;23.284;2023-08-06T01:05:24;95757.19;;;23.27;100.00
10348;BME280;5220;43.192;23.284;2023-08-06T01:08:03;95764.69;;;23.12;100.00
10348;BME280;5220;43.192;23.284;2023-08-06T01:10:43;95738.66;;;23.02;100.00
10348;BME280;5220;43.192;23.284;2023-08-06T01:13:19;95737.53;;;22.61;100.00
10348;BME280;5220;43.192;23.284;2023-08-06T01:15:49;95754.28;;;22.86;100.00
10348;BME280;5220;43.192;23.284;2023-08-06T01:18:20;95757.56;;;22.88;100.00
10348;BME280;5220;43.192;23.284;2023-08-06T01:20:48;95749.88;;;22.80;100.00
10348;BME280;5220;43.192;23.284;2023-08-06T01:23:16;95763.72;;;23.07;100.00
10348;BME280;5220;43.192;23.284;2023-08-06T01:25:59;95765.28;;;22.89;100.00
10348;BME280;5220;43.192;23.284;2023-08-06T01:28:36;95753.41;;;23.17;100.00
10348;BME280;5220;43.192;23.284;2023-08-06T01:31:10;95742.66;;;23.30;100.00
10348;BME280;5220;43.192;23.284;2023-08-06T01:33:43;95747.00;;;23.24;100.00
10348;BME280;5220;43.192;23.284;2023-08-06T01:36:15;95737.72;;;23.33;100.00
10348;BME280;5220;43.192;23.284;2023-08-06T01:38:42;95743.56;;;23.42;100.00
10348;BME280;5220;43.192;23.284;2023-08-06T01:41:09;95742.09;;;23.46;100.00
10348;BME280;5220;43.192;23.284;2023-08-06T01:43:36;95738.19;;;23.48;100.00
10348;BME280;5220;43.192;23.284;2023-08-06T01:46:03;95738.00;;;23.50;100.00
10348;BME280;5220;43.192;23.284;2023-08-06T01:48:29;95741.28;;;23.45;100.00
10348;BME280;5220;43.192;23.284;2023-08-06T01:50:56;95730.41;;;23.53;100.00
10348;BME280;5220;43.192;23.284;2023-08-06T01:53:24;95741.47;;;23.50;100.00
10348;BME280;5220;43.192;23.284;2023-08-06T01:55:51;95737.72;;;23.33;100.00
10348;BME280;5220;43.192;23.284;2023-08-06T01:58:17;95744.75;;;23.46;100.00
10348;BME280;5220;43.192;23.284;2023-08-06T02:00:44;95736.94;;;23.51;100.00
10348;BME280;5220;43.192;23.284;2023-08-06T02:03:11;95733.03;;;23.53;100.00
10348;BME280;5220;43.192;23.284;2023-08-06T02:05:37;95730.41;;;23.53;100.00
10348;BME280;5220;43.192;23.284;2023-08-06T02:08:04;95729.78;;;23.51;100.00
10348;BME280;5220;43.192;23.284;2023-08-06T02:10:32;95732.69;;;23.50;100.00
10348;BME280;5220;43.192;23.284;2023-08-06T02:12:59;95723.53;;;23.46;100.00
10348;BME280;5220;43.192;23.284;2023-08-06T02:15:25;95714.75;;;23.45;100.00
10348;BME280;5220;43.192;23.284;2023-08-06T02:17:52;95709.59;;;23.50;100.00
10348;BME280;5220;43.192;23.284;2023-08-06T02:20:19;95706.50;;;23.53;100.00
10348;BME280;5220;43.192;23.284;2023-08-06T02:22:45;95694.81;;;23.54;100.00
10348;BME280;5220;43.192;23.284;2023-08-06T02:25:12;95699.56;;;23.52;100.00
10348;BME280;5220;43.192;23.284;2023-08-06T02:27:40;95718.59;;;23.49;100.00
10348;BME280;5220;43.192;23.284;2023-08-06T02:30:07;95747.03;;;23.42;100.00
10348;BME280;5220;43.192;23.284;2023-08-06T02:32:34;95751.34;;;23.43;100.00
10348;BME280;5220;43.192;23.284;2023-08-06T02:35:01;95718.78;;;23.48;100.00
10348;BME280;5220;43.192;23.284;2023-08-06T02:37:28;95692.53;;;23.22;100.00
10348;BME280;5220;43.192;23.284;2023-08-06T02:39:54;95701.56;;;22.78;100.00
10348;BME280;5220;43.192;23.284;2023-08-06T02:42:21;95703.91;;;22.86;100.00
10348;BME280;5220;43.192;23.284;2023-08-06T02:44:50;95694.31;;;23.10;100.00
10348;BME280;5220;43.192;23.284;2023-08-06T02:47:16;95690.97;;;23.14;100.00
10348;BME280;5220;43.192;23.284;2023-08-06T02:49:43;95700.78;;;23.14;100.00
10348;BME280;5220;43.192;23.284;2023-08-06T02:52:10;95699.69;;;23.21;100.00
10348;BME280;5220;43.192;23.284;2023-08-06T02:54:37;95692.47;;;23.28;100.00
10348;BME280;5220;43.192;23.284;2023-08-06T02:57:04;95703.59;;;23.19;100.00
10348;BME280;5220;43.192;23.284;2023-08-06T02:59:31;95695.25;;;23.15;100.00
10348;BME280;5220;43.192;23.284;2023-08-06T03:01:59;95701.44;;;23.09;100.00
10348;BME280;5220;43.192;23.284;2023-08-06T03:04:26;95709.28;;;23.22;100.00
10348;BME280;5220;43.192;23.284;2023-08-06T03:06:53;95728.34;;;23.13;100.00
10348;BME280;5220;43.192;23.284;2023-08-06T03:09:19;95755.41;;;23.21;100.00
10348;BME280;5220;43.192;23.284;2023-08-06T03:11:46;95750.31;;;23.20;100.00
10348;BME280;5220;43.192;23.284;2023-08-06T03:14:13;95745.81;;;23.20;100.00
10348;BME280;5220;43.192;23.284;2023-08-06T03:16:39;95746.44;;;23.22;100.00
10348;BME280;5220;43.192;23.284;2023-08-06T03:19:07;95735.56;;;23.24;100.00
10348;BME280;5220;43.192;23.284;2023-08-06T03:21:34;95729.50;;;22.98;100.00
10348;BME280;5220;43.192;23.284;2023-08-06T03:24:01;95726.50;;;23.13;100.00
10348;BME280;5220;43.192;23.284;2023-08-06T03:26:27;95739.34;;;23.16;100.00
10348;BME280;5220;43.192;23.284;2023-08-06T03:28:54;95744.66;;;23.16;100.00
10348;BME280;5220;43.192;23.284;2023-08-06T03:31:21;95742.06;;;23.10;100.00
10348;BME280;5220;43.192;23.284;2023-08-06T03:33:47;95727.06;;;22.97;100.00
10348;BME280;5220;43.192;23.284;2023-08-06T03:36:15;95721.22;;;22.88;100.00
10348;BME280;5220;43.192;23.284;2023-08-06T03:38:42;95754.78;;;23.01;100.00
10348;BME280;5220;43.192;23.284;2023-08-06T03:41:09;95775.69;;;22.91;100.00
10348;BME280;5220;43.192;23.284;2023-08-06T03:43:35;95768.47;;;22.98;100.00
10348;BME280;5220;43.192;23.284;2023-08-06T03:46:02;95740.84;;;22.87;100.00
10348;BME280;5220;43.192;23.284;2023-08-06T03:48:28;95715.41;;;22.98;100.00
10348;BME280;5220;43.192;23.284;2023-08-06T03:50:55;95735.03;;;22.97;100.00
10348;BME280;5220;43.192;23.284;2023-08-06T03:53:23;95733.19;;;22.97;100.00
10348;BME280;5220;43.192;23.284;2023-08-06T03:55:50;95717.06;;;22.99;100.00
10348;BME280;5220;43.192;23.284;2023-08-06T03:58:17;95709.88;;;22.81;100.00
10348;BME280;5220;43.192;23.284;2023-08-06T04:00:43;95700.38;;;22.92;100.00
10348;BME280;5220;43.192;23.284;2023-08-06T04:03:10;95691.84;;;22.90;100.00
10348;BME280;5220;43.192;23.284;2023-08-06T04:05:37;95680.66;;;22.88;100.00
10348;BME280;5220;43.192;23.284;2023-08-06T04:08:03;95699.34;;;22.93;100.00
10348;BME280;5220;43.192;23.284;2023-08-06T04:10:31;95703.22;;;22.97;100.00
10348;BME280;5220;43.192;23.284;2023-08-06T04:12:58;95712.06;;;22.66;100.00
10348;BME280;5220;43.192;23.284;2023-08-06T04:15:25;95698.06;;;22.77;100.00
10348;BME280;5220;43.192;23.284;2023-08-06T04:17:51;95703.81;;;22.74;100.00
10348;BME280;5220;43.192;23.284;2023-08-06T04:20:18;95723.78;;;22.77;100.00
10348;BME280;5220;43.192;23.284;2023-08-06T04:22:45;95717.91;;;22.75;100.00
10348;BME280;5220;43.192;23.284;2023-08-06T04:25:11;95719.09;;;22.79;100.00
10348;BME280;5220;43.192;23.284;2023-08-06T04:27:39;95727.84;;;22.79;100.00
10348;BME280;5220;43.192;23.284;2023-08-06T04:30:07;95718.03;;;22.80;100.00
10348;BME280;5220;43.192;23.284;2023-08-06T04:32:34;95714.72;;;22.35;100.00
10348;BME280;5220;43.192;23.284;2023-08-06T04:35:01;95705.25;;;22.45;100.00
10348;BME280;5220;43.192;23.284;2023-08-06T04:37:27;95721.75;;;22.47;100.00
10348;BME280;5220;43.192;23.284;2023-08-06T04:39:54;95729.00;;;22.59;100.00
10348;BME280;5220;43.192;23.284;2023-08-06T04:42:21;95727.56;;;22.63;100.00
10348;BME280;5220;43.192;23.284;2023-08-06T04:44:49;95735.50;;;22.63;100.00
10348;BME280;5220;43.192;23.284;2023-08-06T04:47:16;95732.44;;;22.66;100.00
10348;BME280;5220;43.192;23.284;2023-08-06T04:49:43;95730.19;;;22.69;100.00
10348;BME280;5220;43.192;23.284;2023-08-06T04:52:09;95724.06;;;22.69;100.00
10348;BME280;5220;43.192;23.284;2023-08-06T04:54:36;95725.41;;;22.78;100.00
10348;BME280;5220;43.192;23.284;2023-08-06T04:57:03;95726.88;;;22.74;100.00
10348;BME280;5220;43.192;23.284;2023-08-06T04:59:30;95719.69;;;22.81;100.00
10348;BME280;5220;43.192;23.284;2023-08-06T05:01:58;95711.56;;;22.76;100.00
10348;BME280;5220;43.192;23.284;2023-08-06T05:04:24;95702.41;;;22.72;100.00
10348;BME280;5220;43.192;23.284;2023-08-06T05:06:51;95702.63;;;22.70;100.00
10348;BME280;5220;43.192;23.284;2023-08-06T05:09:18;95700.34;;;22.74;100.00
10348;BME280;5220;43.192;23.284;2023-08-06T05:11:46;95694.09;;;22.68;100.00
10348;BME280;5220;43.192;23.284;2023-08-06T05:14:12;95692.31;;;22.56;100.00
10348;BME280;5220;43.192;23.284;2023-08-06T05:16:39;95682.00;;;22.47;100.00
10348;BME280;5220;43.192;23.284;2023-08-06T05:19:07;95687.66;;;22.51;100.00
10348;BME280;5220;43.192;23.284;2023-08-06T05:21:34;95679.72;;;22.51;100.00
10348;BME280;5220;43.192;23.284;2023-08-06T05:24:01;95681.44;;;22.64;100.00
10348;BME280;5220;43.192;23.284;2023-08-06T05:26:27;95680.66;;;22.63;100.00
10348;BME280;5220;43.192;23.284;2023-08-06T05:28:54;95681.34;;;22.77;100.00
10348;BME280;5220;43.192;23.284;2023-08-06T05:31:21;95680.47;;;22.83;100.00
10348;BME280;5220;43.192;23.284;2023-08-06T05:33:47;95676.75;;;22.90;100.00
10348;BME280;5220;43.192;23.284;2023-08-06T05:36:15;95693.84;;;22.94;100.00
10348;BME280;5220;43.192;23.284;2023-08-06T05:38:43;95696.66;;;22.99;100.00
10348;BME280;5220;43.192;23.284;2023-08-06T05:41:09;95696.22;;;23.02;100.00
10348;BME280;5220;43.192;23.284;2023-08-06T05:43:36;95685.34;;;22.86;100.00
10348;BME280;5220;43.192;23.284;2023-08-06T05:46:03;95681.22;;;22.90;100.00
10348;BME280;5220;43.192;23.284;2023-08-06T05:48:29;95686.25;;;22.98;100.00
10348;BME280;5220;43.192;23.284;2023-08-06T05:53:25;95697.47;;;23.00;100.00
10348;BME280;5220;43.192;23.284;2023-08-06T05:55:51;95694.94;;;23.05;100.00
10348;BME280;5220;43.192;23.284;2023-08-06T05:58:18;95697.78;;;23.10;100.00
10348;BME280;5220;43.192;23.284;2023-08-06T06:00:45;95687.81;;;23.24;100.00
10348;BME280;5220;43.192;23.284;2023-08-06T06:03:12;95700.56;;;23.15;100.00
10348;BME280;5220;43.192;23.284;2023-08-06T06:05:38;95692.41;;;23.35;100.00
10348;BME280;5220;43.192;23.284;2023-08-06T06:08:05;95698.25;;;23.43;100.00
10348;BME280;5220;43.192;23.284;2023-08-06T06:10:33;95693.56;;;23.57;100.00
10348;BME280;5220;43.192;23.284;2023-08-06T06:13:00;95679.56;;;23.68;100.00
10348;BME280;5220;43.192;23.284;2023-08-06T06:15:27;95690.81;;;23.82;100.00
10348;BME280;5220;43.192;23.284;2023-08-06T06:17:53;95710.91;;;23.41;100.00
10348;BME280;5220;43.192;23.284;2023-08-06T06:20:20;95713.03;;;23.69;100.00
10348;BME280;5220;43.192;23.284;2023-08-06T06:22:47;95728.88;;;23.94;100.00
10348;BME280;5220;43.192;23.284;2023-08-06T06:25:13;95738.00;;;23.98;100.00
10348;BME280;5220;43.192;23.284;2023-08-06T06:27:41;95756.63;;;23.80;100.00
10348;BME280;5220;43.192;23.284;2023-08-06T06:30:09;95772.97;;;23.95;100.00
10348;BME280;5220;43.192;23.284;2023-08-06T06:32:37;95770.91;;;23.79;100.00
10348;BME280;5220;43.192;23.284;2023-08-06T06:35:05;95761.13;;;23.79;100.00
10348;BME280;5220;43.192;23.284;2023-08-06T06:37:32;95757.00;;;23.65;100.00
10348;BME280;5220;43.192;23.284;2023-08-06T06:39:59;95755.16;;;23.84;100.00
10348;BME280;5220;43.192;23.284;2023-08-06T06:42:25;95770.13;;;23.78;100.00
10348;BME280;5220;43.192;23.284;2023-08-06T06:44:53;95780.69;;;23.85;100.00
10348;BME280;5220;43.192;23.284;2023-08-06T06:47:20;95783.13;;;23.68;100.00
10348;BME280;5220;43.192;23.284;2023-08-06T06:49:47;95786.59;;;23.69;100.00
10348;BME280;5220;43.192;23.284;2023-08-06T06:52:14;95785.41;;;23.65;100.00
10348;BME280;5220;43.192;23.284;2023-08-06T06:54:40;95777.31;;;23.60;100.00
10348;BME280;5220;43.192;23.284;2023-08-06T06:57:07;95779.00;;;23.72;100.00
10348;BME280;5220;43.192;23.284;2023-08-06T06:59:34;95784.06;;;23.74;100.00
10348;BME280;5220;43.192;23.284;2023-08-06T07:02:02;95794.38;;;23.64;100.00
10348;BME280;5220;43.192;23.284;2023-08-06T07:04:28;95796.97;;;23.52;100.00
10348;BME280;5220;43.192;23.284;2023-08-06T07:06:55;95803.81;;;23.41;100.00
10348;BME280;5220;43.192;23.284;2023-08-06T07:09:22;95810.38;;;23.57;100.00
10348;BME280;5220;43.192;23.284;2023-08-06T07:11:48;95804.22;;;23.63;100.00
10348;BME280;5220;43.192;23.284;2023-08-06T07:14:15;95813.16;;;23.69;100.00
10348;BME280;5220;43.192;23.284;2023-08-06T07:16:42;95814.31;;;23.73;100.00
10348;BME280;5220;43.192;23.284;2023-08-06T07:19:10;95818.22;;;23.70;100.00
10348;BME280;5220;43.192;23.284;2023-08-06T07:21:36;95818.72;;;23.79;100.00
10348;BME280;5220;43.192;23.284;2023-08-06T07:24:03;95819.16;;;23.76;100.00
10348;BME280;5220;43.192;23.284;2023-08-06T07:26:30;95818.84;;;23.72;100.00
10348;BME280;5220;43.192;23.284;2023-08-06T07:28:57;95822.38;;;23.84;100.00
10348;BME280;5220;43.192;23.284;2023-08-06T07:31:23;95822.06;;;23.92;100.00
10348;BME280;5220;43.192;23.284;2023-08-06T07:33:51;95833.50;;;23.75;100.00
10348;BME280;5220;43.192;23.284;2023-08-06T07:36:19;95838.22;;;23.91;100.00
10348;BME280;5220;43.192;23.284;2023-08-06T07:38:45;95821.25;;;23.92;100.00
10348;BME280;5220;43.192;23.284;2023-08-06T07:41:14;95826.03;;;24.01;100.00
10348;BME280;5220;43.192;23.284;2023-08-06T07:43:40;95826.19;;;23.88;100.00
10348;BME280;5220;43.192;23.284;2023-08-06T07:46:08;95828.41;;;23.91;100.00
10348;BME280;5220;43.192;23.284;2023-08-06T07:48:34;95824.31;;;24.07;100.00
10348;BME280;5220;43.192;23.284;2023-08-06T07:51:01;95826.19;;;24.25;100.00
10348;BME280;5220;43.192;23.284;2023-08-06T07:53:29;95825.44;;;24.36;100.00
10348;BME280;5220;43.192;23.284;2023-08-06T07:55:56;95821.66;;;24.43;100.00
10348;BME280;5220;43.192;23.284;2023-08-06T07:58:24;95826.88;;;24.50;100.00
10348;BME280;5220;43.192;23.284;2023-08-06T08:00:51;95823.00;;;24.34;100.00
10348;BME280;5220;43.192;23.284;2023-08-06T08:03:18;95828.91;;;24.36;100.00
10348;BME280;5220;43.192;23.284;2023-08-06T08:05:45;95828.25;;;24.23;100.00
10348;BME280;5220;43.192;23.284;2023-08-06T08:08:11;95828.31;;;24.34;100.00
10348;BME280;5220;43.192;23.284;2023-08-06T08:10:40;95827.66;;;24.50;100.00
10348;BME280;5220;43.192;23.284;2023-08-06T08:13:07;95821.34;;;24.63;100.00
10348;BME280;5220;43.192;23.284;2023-08-06T08:15:34;95822.66;;;24.72;100.00
10348;BME280;5220;43.192;23.284;2023-08-06T08:18:01;95823.31;;;24.86;100.00
10348;BME280;5220;43.192;23.284;2023-08-06T08:20:27;95821.94;;;24.95;100.00
10348;BME280;5220;43.192;23.284;2023-08-06T08:22:58;95825.06;;;25.03;100.00
10348;BME280;5220;43.192;23.284;2023-08-06T08:25:25;95836.22;;;25.12;100.00
10348;BME280;5220;43.192;23.284;2023-08-06T08:27:53;95840.72;;;25.23;100.00
10348;BME280;5220;43.192;23.284;2023-08-06T08:30:20;95833.44;;;25.30;100.00
10348;BME280;5220;43.192;23.284;2023-08-06T08:32:47;95842.13;;;25.37;100.00
10348;BME280;5220;43.192;23.284;2023-08-06T08:35:14;95836.56;;;25.39;100.00
10348;BME280;5220;43.192;23.284;2023-08-06T08:37:41;95831.84;;;25.52;100.00
10348;BME280;5220;43.192;23.284;2023-08-06T08:40:09;95826.72;;;25.62;100.00
10348;BME280;5220;43.192;23.284;2023-08-06T08:42:36;95822.34;;;25.68;100.00
10348;BME280;5220;43.192;23.284;2023-08-06T08:45:09;95816.53;;;25.59;100.00
10348;BME280;5220;43.192;23.284;2023-08-06T08:47:40;95819.88;;;25.78;100.00
10348;BME280;5220;43.192;23.284;2023-08-06T08:50:08;95825.56;;;25.82;100.00
10348;BME280;5220;43.192;23.284;2023-08-06T08:52:35;95824.16;;;26.02;100.00
10348;BME280;5220;43.192;23.284;2023-08-06T08:55:03;95826.56;;;26.04;100.00
10348;BME280;5220;43.192;23.284;2023-08-06T08:57:29;95823.03;;;25.63;100.00
10348;BME280;5220;43.192;23.284;2023-08-06T08:59:56;95815.84;;;25.64;100.00
10348;BME280;5220;43.192;23.284;2023-08-06T09:02:25;95803.91;;;25.90;100.00
10348;BME280;5220;43.192;23.284;2023-08-06T09:04:55;95806.19;;;25.98;100.00
10348;BME280;5220;43.192;23.284;2023-08-06T09:07:25;95793.78;;;25.92;100.00
10348;BME280;5220;43.192;23.284;2023-08-06T09:09:53;95797.75;;;26.29;100.00
10348;BME280;5220;43.192;23.284;2023-08-06T09:12:22;95798.94;;;26.50;100.00
10348;BME280;5220;43.192;23.284;2023-08-06T09:14:49;95805.28;;;26.60;100.00
10348;BME280;5220;43.192;23.284;2023-08-06T09:17:16;95793.25;;;26.58;100.00
10348;BME280;5220;43.192;23.284;2023-08-06T09:19:46;95778.78;;;26.70;100.00
10348;BME280;5220;43.192;23.284;2023-08-06T09:22:15;95775.03;;;26.71;100.00
10348;BME280;5220;43.192;23.284;2023-08-06T09:24:42;95783.03;;;26.83;100.00
10348;BME280;5220;43.192;23.284;2023-08-06T09:27:13;95786.59;;;26.60;100.00
10348;BME280;5220;43.192;23.284;2023-08-06T09:29:41;95776.94;;;26.71;100.00
10348;BME280;5220;43.192;23.284;2023-08-06T09:32:08;95779.06;;;27.02;100.00
10348;BME280;5220;43.192;23.284;2023-08-06T09:34:35;95779.38;;;27.06;100.00
10348;BME280;5220;43.192;23.284;2023-08-06T09:37:03;95777.75;;;27.21;100.00
10348;BME280;5220;43.192;23.284;2023-08-06T09:39:31;95772.34;;;27.33;100.00
10348;BME280;5220;43.192;23.284;2023-08-06T09:41:58;95765.28;;;27.44;100.00
10348;BME280;5220;43.192;23.284;2023-08-06T09:44:26;95765.19;;;27.55;100.00
10348;BME280;5220;43.192;23.284;2023-08-06T09:46:54;95758.97;;;27.33;100.00
10348;BME280;5220;43.192;23.284;2023-08-06T09:49:26;95762.63;;;27.44;100.00
10348;BME280;5220;43.192;23.284;2023-08-06T09:51:53;95768.09;;;27.37;100.00
10348;BME280;5220;43.192;23.284;2023-08-06T09:54:25;95771.53;;;27.33;100.00
10348;BME280;5220;43.192;23.284;2023-08-06T09:56:52;95773.75;;;27.41;100.00
10348;BME280;5220;43.192;23.284;2023-08-06T09:59:19;95772.13;;;27.01;100.00
10348;BME280;5220;43.192;23.284;2023-08-06T10:01:46;95779.31;;;27.17;100.00
10348;BME280;5220;43.192;23.284;2023-08-06T10:04:15;95785.53;;;27.23;100.00
10348;BME280;5220;43.192;23.284;2023-08-06T10:06:43;95779.38;;;27.06;100.00
10348;BME280;5220;43.192;23.284;2023-08-06T10:09:12;95790.97;;;27.11;100.00
10348;BME280;5220;43.192;23.284;2023-08-06T10:11:42;95795.72;;;27.26;100.00
10348;BME280;5220;43.192;23.284;2023-08-06T10:14:12;95792.31;;;27.47;100.00
10348;BME280;5220;43.192;23.284;2023-08-06T10:16:40;95787.78;;;27.48;100.00
10348;BME280;5220;43.192;23.284;2023-08-06T10:19:09;95800.06;;;27.65;100.00
10348;BME280;5220;43.192;23.284;2023-08-06T10:21:38;95793.72;;;27.71;100.00
10348;BME280;5220;43.192;23.284;2023-08-06T10:24:07;95795.38;;;27.56;100.00
10348;BME280;5220;43.192;23.284;2023-08-06T10:26:35;95782.13;;;27.44;100.00
10348;BME280;5220;43.192;23.284;2023-08-06T10:29:34;95797.38;;;27.65;100.00
10348;BME280;5220;43.192;23.284;2023-08-06T10:32:02;95795.41;;;27.77;100.00
10348;BME280;5220;43.192;23.284;2023-08-06T10:34:54;95799.69;;;27.57;100.00
10348;BME280;5220;43.192;23.284;2023-08-06T10:37:22;95803.81;;;27.48;100.00
10348;BME280;5220;43.192;23.284;2023-08-06T10:39:49;95804.44;;;27.21;100.00
10348;BME280;5220;43.192;23.284;2023-08-06T10:42:20;95802.81;;;27.37;100.00
10348;BME280;5220;43.192;23.284;2023-08-06T10:45:12;95805.25;;;27.39;100.00
10348;BME280;5220;43.192;23.284;2023-08-06T10:47:39;95793.38;;;27.46;100.00
10348;BME280;5220;43.192;23.284;2023-08-06T10:50:06;95801.16;;;27.48;100.00
10348;BME280;5220;43.192;23.284;2023-08-06T10:52:33;95791.25;;;27.32;100.00
10348;BME280;5220;43.192;23.284;2023-08-06T10:55:00;95794.03;;;27.37;100.00
10348;BME280;5220;43.192;23.284;2023-08-06T10:57:27;95790.28;;;27.38;100.00
10348;BME280;5220;43.192;23.284;2023-08-06T10:59:53;95794.59;;;27.55;100.00
10348;BME280;5220;43.192;23.284;2023-08-06T11:02:22;95793.13;;;27.64;100.00
10348;BME280;5220;43.192;23.284;2023-08-06T11:04:49;95780.81;;;27.47;100.00
10348;BME280;5220;43.192;23.284;2023-08-06T11:07:15;95784.66;;;27.72;100.00
10348;BME280;5220;43.192;23.284;2023-08-06T11:09:42;95786.75;;;27.49;100.00
10348;BME280;5220;43.192;23.284;2023-08-06T11:12:09;95790.19;;;27.66;100.00
10348;BME280;5220;43.192;23.284;2023-08-06T11:14:36;95787.28;;;27.67;100.00
10348;BME280;5220;43.192;23.284;2023-08-06T11:17:04;95797.34;;;27.82;100.00
10348;BME280;5220;43.192;23.284;2023-08-06T11:19:33;95794.06;;;27.97;100.00
10348;BME280;5220;43.192;23.284;2023-08-06T11:22:00;95793.25;;;28.18;100.00
10348;BME280;5220;43.192;23.284;2023-08-06T11:24:27;95801.25;;;28.13;100.00
10348;BME280;5220;43.192;23.284;2023-08-06T11:26:54;95799.88;;;28.10;100.00
10348;BME280;5220;43.192;23.284;2023-08-06T11:29:20;95799.72;;;28.00;100.00
10348;BME280;5220;43.192;23.284;2023-08-06T11:31:48;95798.56;;;27.74;100.00
10348;BME280;5220;43.192;23.284;2023-08-06T11:34:15;95804.69;;;27.70;100.00
10348;BME280;5220;43.192;23.284;2023-08-06T11:36:43;95821.72;;;27.47;100.00
10348;BME280;5220;43.192;23.284;2023-08-06T11:39:10;95837.31;;;26.89;100.00
10348;BME280;5220;43.192;23.284;2023-08-06T11:41:37;95858.59;;;25.81;100.00
10348;BME280;5220;43.192;23.284;2023-08-06T11:44:05;95876.03;;;25.19;100.00
10348;BME280;5220;43.192;23.284;2023-08-06T11:46:49;95879.31;;;24.73;100.00
10348;BME280;5220;43.192;23.284;2023-08-06T11:49:17;95875.06;;;24.24;100.00
10348;BME280;5220;43.192;23.284;2023-08-06T11:51:48;95863.53;;;23.93;100.00
10348;BME280;5220;43.192;23.284;2023-08-06T11:54:14;95866.69;;;23.66;100.00
10348;BME280;5220;43.192;23.284;2023-08-06T11:56:42;95859.31;;;23.68;100.00
10348;BME280;5220;43.192;23.284;2023-08-06T11:59:08;95865.50;;;23.62;100.00
10348;BME280;5220;43.192;23.284;2023-08-06T12:01:35;95867.47;;;23.91;100.00
10348;BME280;5220;43.192;23.284;2023-08-06T12:04:04;95875.31;;;23.97;100.00
10348;BME280;5220;43.192;23.284;2023-08-06T12:06:41;95878.28;;;24.07;100.00
10348;BME280;5220;43.192;23.284;2023-08-06T12:09:09;95867.59;;;24.32;100.00
10348;BME280;5220;43.192;23.284;2023-08-06T12:11:36;95862.41;;;24.55;100.00
10348;BME280;5220;43.192;23.284;2023-08-06T12:14:03;95864.97;;;24.62;100.00
10348;BME280;5220;43.192;23.284;2023-08-06T12:16:29;95858.91;;;24.85;100.00
10348;BME280;5220;43.192;23.284;2023-08-06T12:18:56;95859.03;;;24.60;100.00
10348;BME280;5220;43.192;23.284;2023-08-06T12:21:23;95856.53;;;24.65;100.00
10348;BME280;5220;43.192;23.284;2023-08-06T13:29:39;95776.44;;;26.29;100.00
10348;BME280;5220;43.192;23.284;2023-08-06T13:32:06;95787.19;;;26.34;100.00
10348;BME280;5220;43.192;23.284;2023-08-06T13:34:32;95787.50;;;26.49;100.00
10348;BME280;5220;43.192;23.284;2023-08-06T13:36:59;95787.31;;;26.56;100.00
10348;BME280;5220;43.192;23.284;2023-08-06T13:39:25;95790.94;;;26.50;100.00
10348;BME280;5220;43.192;23.284;2023-08-06T13:41:52;95789.44;;;26.14;100.00
10348;BME280;5220;43.192;23.284;2023-08-06T13:44:19;95790.53;;;26.41;100.00
10348;BME280;5220;43.192;23.284;2023-08-06T13:46:47;95793.88;;;26.48;100.00
10348;BME280;5220;43.192;23.284;2023-08-06T13:49:13;95791.88;;;26.55;100.00
10348;BME280;5220;43.192;23.284;2023-08-06T13:51:40;95792.34;;;26.69;100.00
10348;BME280;5220;43.192;23.284;2023-08-06T13:54:07;95788.50;;;26.77;100.00
10348;BME280;5220;43.192;23.284;2023-08-06T13:56:34;95803.00;;;26.81;100.00
10348;BME280;5220;43.192;23.284;2023-08-06T13:59:03;95807.72;;;26.79;100.00
10348;BME280;5220;43.192;23.284;2023-08-06T14:01:30;95797.41;;;26.82;100.00